sensor_id;sensor_type;location;lat;lon;timestamp;temperature;humidity
22742;DHT22;11538;48.884;8.696;2023-07-13T00:02:22;22.90;99.90
22742;DHT22;11538;48.884;8.696;2023-07-13T00:04:50;22.80;99.90
22742;DHT22;11538;48.884;8.696;2023-07-13T00:07:17;22.80;99.90
22742;DHT22;11538;48.884;8.696;2023-07-13T00:09:46;22.80;99.90
22742;DHT22;11538;48.884;8.696;2023-07-13T00:12:28;22.70;99.90
22742;DHT22;11538;48.884;8.696;2023-07-13T00:14:59;22.60;99.90
22742;DHT22;11538;48.884;8.696;2023-07-13T00:17:27;22.50;99.90
22742;DHT22;11538;48.884;8.696;2023-07-13T00:19:56;22.50;99.90
22742;DHT22;11538;48.884;8.696;2023-07-13T00:22:24;22.40;99.90
22742;DHT22;11538;48.884;8.696;2023-07-13T00:24:53;22.30;99.90
22742;DHT22;11538;48.884;8.696;2023-07-13T00:27:23;22.10;99.90
22742;DHT22;11538;48.884;8.696;2023-07-13T00:29:53;22.00;99.90
22742;DHT22;11538;48.884;8.696;2023-07-13T00:32:20;21.90;99.90
22742;DHT22;11538;48.884;8.696;2023-07-13T00:34:47;21.90;99.90
22742;DHT22;11538;48.884;8.696;2023-07-13T00:37:14;21.80;99.90
22742;DHT22;11538;48.884;8.696;2023-07-13T00:39:41;21.80;99.90
22742;DHT22;11538;48.884;8.696;2023-07-13T00:42:08;21.70;99.90
22742;DHT22;11538;48.884;8.696;2023-07-13T00:44:35;21.60;99.90
22742;DHT22;11538;48.884;8.696;2023-07-13T00:47:02;21.50;99.90
22742;DHT22;11538;48.884;8.696;2023-07-13T00:49:31;21.40;99.90
22742;DHT22;11538;48.884;8.696;2023-07-13T00:52:07;21.40;99.90
22742;DHT22;11538;48.884;8.696;2023-07-13T00:54:44;21.30;99.90
22742;DHT22;11538;48.884;8.696;2023-07-13T00:57:16;21.20;99.90
22742;DHT22;11538;48.884;8.696;2023-07-13T00:59:52;21.20;99.90
22742;DHT22;11538;48.884;8.696;2023-07-13T01:02:24;21.10;99.90
22742;DHT22;11538;48.884;8.696;2023-07-13T01:04:52;21.10;99.90
22742;DHT22;11538;48.884;8.696;2023-07-13T01:07:19;21.00;99.90
22742;DHT22;11538;48.884;8.696;2023-07-13T01:09:46;20.90;99.90
22742;DHT22;11538;48.884;8.696;2023-07-13T01:12:13;20.90;99.90
22742;DHT22;11538;48.884;8.696;2023-07-13T01:14:40;20.80;99.90
22742;DHT22;11538;48.884;8.696;2023-07-13T01:17:10;20.70;99.90
22742;DHT22;11538;48.884;8.696;2023-07-13T01:19:44;20.70;99.90
22742;DHT22;11538;48.884;8.696;2023-07-13T01:22:15;20.70;99.90
22742;DHT22;11538;48.884;8.696;2023-07-13T01:24:47;20.70;99.90
22742;DHT22;11538;48.884;8.696;2023-07-13T01:27:19;20.70;99.90
22742;DHT22;11538;48.884;8.696;2023-07-13T01:29:48;20.60;99.90
22742;DHT22;11538;48.884;8.696;2023-07-13T01:32:19;20.60;99.90
22742;DHT22;11538;48.884;8.696;2023-07-13T01:34:52;20.50;99.90
22742;DHT22;11538;48.884;8.696;2023-07-13T01:37:24;20.50;99.90
22742;DHT22;11538;48.884;8.696;2023-07-13T01:39:52;20.40;99.90
22742;DHT22;11538;48.884;8.696;2023-07-13T01:42:19;20.40;99.90
22742;DHT22;11538;48.884;8.696;2023-07-13T01:44:46;20.40;99.90
22742;DHT22;11538;48.884;8.696;2023-07-13T01:47:16;20.40;99.90
22742;DHT22;11538;48.884;8.696;2023-07-13T01:49:43;20.40;99.90
22742;DHT22;11538;48.884;8.696;2023-07-13T01:52:12;20.40;99.90
22742;DHT22;11538;48.884;8.696;2023-07-13T01:54:39;20.30;99.90
22742;DHT22;11538;48.884;8.696;2023-07-13T01:57:06;20.30;99.90
22742;DHT22;11538;48.884;8.696;2023-07-13T01:59:33;20.30;99.90
22742;DHT22;11538;48.884;8.696;2023-07-13T02:02:01;20.20;99.90
22742;DHT22;11538;48.884;8.696;2023-07-13T02:04:28;20.10;99.90
22742;DHT22;11538;48.884;8.696;2023-07-13T02:06:54;20.10;99.90
22742;DHT22;11538;48.884;8.696;2023-07-13T02:09:22;20.00;99.90
22742;DHT22;11538;48.884;8.696;2023-07-13T02:11:49;20.00;99.90
22742;DHT22;11538;48.884;8.696;2023-07-13T02:14:16;20.00;99.90
22742;DHT22;11538;48.884;8.696;2023-07-13T02:16:43;20.10;99.90
22742;DHT22;11538;48.884;8.696;2023-07-13T02:19:10;20.00;99.90
22742;DHT22;11538;48.884;8.696;2023-07-13T02:21:38;19.90;99.90
22742;DHT22;11538;48.884;8.696;2023-07-13T02:24:05;19.90;99.90
22742;DHT22;11538;48.884;8.696;2023-07-13T02:26:32;19.80;99.90
22742;DHT22;11538;48.884;8.696;2023-07-13T02:28:59;19.70;99.90
22742;DHT22;11538;48.884;8.696;2023-07-13T02:31:26;19.70;99.90
22742;DHT22;11538;48.884;8.696;2023-07-13T02:33:53;19.70;99.90
22742;DHT22;11538;48.884;8.696;2023-07-13T02:36:20;19.60;99.90
22742;DHT22;11538;48.884;8.696;2023-07-13T02:38:49;19.50;99.90
22742;DHT22;11538;48.884;8.696;2023-07-13T02:41:16;19.40;99.90
22742;DHT22;11538;48.884;8.696;2023-07-13T02:43:44;19.40;99.90
22742;DHT22;11538;48.884;8.696;2023-07-13T02:46:11;19.30;99.90
22742;DHT22;11538;48.884;8.696;2023-07-13T02:48:38;19.30;99.90
22742;DHT22;11538;48.884;8.696;2023-07-13T02:51:06;19.20;99.90
22742;DHT22;11538;48.884;8.696;2023-07-13T02:53:34;19.30;99.90
22742;DHT22;11538;48.884;8.696;2023-07-13T02:56:03;19.30;99.90
22742;DHT22;11538;48.884;8.696;2023-07-13T02:58:31;19.30;99.90
22742;DHT22;11538;48.884;8.696;2023-07-13T03:00:59;19.20;99.90
22742;DHT22;11538;48.884;8.696;2023-07-13T03:03:33;19.20;99.90
22742;DHT22;11538;48.884;8.696;2023-07-13T03:06:02;19.10;99.90
22742;DHT22;11538;48.884;8.696;2023-07-13T03:08:31;19.10;99.90
22742;DHT22;11538;48.884;8.696;2023-07-13T03:11:00;19.10;99.90
22742;DHT22;11538;48.884;8.696;2023-07-13T03:13:28;19.00;99.90
22742;DHT22;11538;48.884;8.696;2023-07-13T03:15:55;19.00;99.90
22742;DHT22;11538;48.884;8.696;2023-07-13T03:18:22;19.10;99.90
22742;DHT22;11538;48.884;8.696;2023-07-13T03:20:53;19.00;99.90
22742;DHT22;11538;48.884;8.696;2023-07-13T03:23:21;19.00;99.90
22742;DHT22;11538;48.884;8.696;2023-07-13T03:25:48;19.00;99.90
22742;DHT22;11538;48.884;8.696;2023-07-13T03:28:15;19.00;99.90
22742;DHT22;11538;48.884;8.696;2023-07-13T03:30:42;19.00;99.90
22742;DHT22;11538;48.884;8.696;2023-07-13T03:33:09;19.00;99.90
22742;DHT22;11538;48.884;8.696;2023-07-13T03:35:40;19.00;99.90
22742;DHT22;11538;48.884;8.696;2023-07-13T03:38:09;19.00;99.90
22742;DHT22;11538;48.884;8.696;2023-07-13T03:40:36;19.00;99.90
22742;DHT22;11538;48.884;8.696;2023-07-13T03:43:03;19.00;99.90
22742;DHT22;11538;48.884;8.696;2023-07-13T03:45:30;19.00;99.90
22742;DHT22;11538;48.884;8.696;2023-07-13T03:47:57;18.90;99.90
22742;DHT22;11538;48.884;8.696;2023-07-13T03:50:24;18.90;99.90
22742;DHT22;11538;48.884;8.696;2023-07-13T03:52:51;18.90;99.90
22742;DHT22;11538;48.884;8.696;2023-07-13T03:55:18;18.90;99.90
22742;DHT22;11538;48.884;8.696;2023-07-13T03:57:45;18.80;99.90
22742;DHT22;11538;48.884;8.696;2023-07-13T04:00:12;18.80;99.90
22742;DHT22;11538;48.884;8.696;2023-07-13T04:02:39;18.80;99.90
22742;DHT22;11538;48.884;8.696;2023-07-13T04:05:07;18.80;99.90
22742;DHT22;11538;48.884;8.696;2023-07-13T04:07:34;18.80;99.90
22742;DHT22;11538;48.884;8.696;2023-07-13T04:10:01;18.80;99.90
22742;DHT22;11538;48.884;8.696;2023-07-13T04:12:28;18.80;99.90
22742;DHT22;11538;48.884;8.696;2023-07-13T04:14:56;18.90;99.90
22742;DHT22;11538;48.884;8.696;2023-07-13T04:17:23;18.90;99.90
22742;DHT22;11538;48.884;8.696;2023-07-13T04:19:53;18.90;99.90
22742;DHT22;11538;48.884;8.696;2023-07-13T04:22:20;18.90;99.90
22742;DHT22;11538;48.884;8.696;2023-07-13T04:24:48;18.90;99.90
22742;DHT22;11538;48.884;8.696;2023-07-13T04:27:16;18.90;99.90
22742;DHT22;11538;48.884;8.696;2023-07-13T04:29:43;18.90;99.90
22742;DHT22;11538;48.884;8.696;2023-07-13T04:32:10;18.80;99.90
22742;DHT22;11538;48.884;8.696;2023-07-13T04:34:38;18.80;99.90
22742;DHT22;11538;48.884;8.696;2023-07-13T04:37:05;18.80;99.90
22742;DHT22;11538;48.884;8.696;2023-07-13T04:39:32;18.70;99.90
22742;DHT22;11538;48.884;8.696;2023-07-13T04:41:59;18.70;99.90
22742;DHT22;11538;48.884;8.696;2023-07-13T04:44:26;18.70;99.90
22742;DHT22;11538;48.884;8.696;2023-07-13T04:46:52;18.60;99.90
22742;DHT22;11538;48.884;8.696;2023-07-13T04:49:20;18.60;99.90
22742;DHT22;11538;48.884;8.696;2023-07-13T04:51:47;18.50;99.90
22742;DHT22;11538;48.884;8.696;2023-07-13T04:54:14;18.40;99.90
22742;DHT22;11538;48.884;8.696;2023-07-13T04:56:41;18.30;99.90
22742;DHT22;11538;48.884;8.696;2023-07-13T04:59:08;18.30;99.90
22742;DHT22;11538;48.884;8.696;2023-07-13T05:01:35;18.30;99.90
22742;DHT22;11538;48.884;8.696;2023-07-13T05:04:02;18.40;99.90
22742;DHT22;11538;48.884;8.696;2023-07-13T05:06:29;18.40;99.90
22742;DHT22;11538;48.884;8.696;2023-07-13T05:08:57;18.40;99.90
22742;DHT22;11538;48.884;8.696;2023-07-13T05:11:24;18.40;99.90
22742;DHT22;11538;48.884;8.696;2023-07-13T05:13:51;18.40;99.90
22742;DHT22;11538;48.884;8.696;2023-07-13T05:16:18;18.50;99.90
22742;DHT22;11538;48.884;8.696;2023-07-13T05:18:46;18.50;99.90
22742;DHT22;11538;48.884;8.696;2023-07-13T05:21:12;18.50;99.90
22742;DHT22;11538;48.884;8.696;2023-07-13T05:23:40;18.60;99.90
22742;DHT22;11538;48.884;8.696;2023-07-13T05:26:10;18.70;99.90
22742;DHT22;11538;48.884;8.696;2023-07-13T05:28:38;18.70;99.90
22742;DHT22;11538;48.884;8.696;2023-07-13T05:31:07;18.70;99.90
22742;DHT22;11538;48.884;8.696;2023-07-13T05:33:36;18.80;99.90
22742;DHT22;11538;48.884;8.696;2023-07-13T05:36:03;18.80;99.90
22742;DHT22;11538;48.884;8.696;2023-07-13T05:38:30;18.90;99.90
22742;DHT22;11538;48.884;8.696;2023-07-13T05:40:57;18.90;99.90
22742;DHT22;11538;48.884;8.696;2023-07-13T05:43:24;19.00;99.90
22742;DHT22;11538;48.884;8.696;2023-07-13T05:45:54;19.00;99.90
22742;DHT22;11538;48.884;8.696;2023-07-13T05:48:23;19.00;99.90
22742;DHT22;11538;48.884;8.696;2023-07-13T05:50:50;19.00;99.90
22742;DHT22;11538;48.884;8.696;2023-07-13T05:53:17;19.10;99.90
22742;DHT22;11538;48.884;8.696;2023-07-13T05:55:46;19.10;99.90
22742;DHT22;11538;48.884;8.696;2023-07-13T05:58:18;19.10;99.90
22742;DHT22;11538;48.884;8.696;2023-07-13T06:00:46;19.20;99.90
22742;DHT22;11538;48.884;8.696;2023-07-13T06:03:15;19.20;99.90
22742;DHT22;11538;48.884;8.696;2023-07-13T06:05:42;19.30;99.90
22742;DHT22;11538;48.884;8.696;2023-07-13T06:08:09;19.30;99.90
22742;DHT22;11538;48.884;8.696;2023-07-13T06:10:37;19.40;99.90
22742;DHT22;11538;48.884;8.696;2023-07-13T06:13:04;19.50;99.90
22742;DHT22;11538;48.884;8.696;2023-07-13T06:15:32;19.50;99.90
22742;DHT22;11538;48.884;8.696;2023-07-13T06:18:00;19.60;99.90
22742;DHT22;11538;48.884;8.696;2023-07-13T06:20:27;19.50;99.90
22742;DHT22;11538;48.884;8.696;2023-07-13T06:22:54;19.60;99.90
22742;DHT22;11538;48.884;8.696;2023-07-13T06:25:21;19.60;99.90
22742;DHT22;11538;48.884;8.696;2023-07-13T06:27:48;19.70;99.90
22742;DHT22;11538;48.884;8.696;2023-07-13T06:30:15;19.70;99.90
22742;DHT22;11538;48.884;8.696;2023-07-13T06:32:42;19.80;99.90
22742;DHT22;11538;48.884;8.696;2023-07-13T06:35:09;19.90;99.90
22742;DHT22;11538;48.884;8.696;2023-07-13T06:37:39;20.00;99.90
22742;DHT22;11538;48.884;8.696;2023-07-13T06:40:06;20.20;99.90
22742;DHT22;11538;48.884;8.696;2023-07-13T06:42:34;20.30;99.90
22742;DHT22;11538;48.884;8.696;2023-07-13T06:45:01;20.40;99.90
22742;DHT22;11538;48.884;8.696;2023-07-13T06:47:28;20.50;99.90
22742;DHT22;11538;48.884;8.696;2023-07-13T06:49:59;20.60;99.90
22742;DHT22;11538;48.884;8.696;2023-07-13T06:52:27;20.70;99.90
22742;DHT22;11538;48.884;8.696;2023-07-13T06:54:53;20.70;99.90
22742;DHT22;11538;48.884;8.696;2023-07-13T06:57:21;20.80;99.90
22742;DHT22;11538;48.884;8.696;2023-07-13T06:59:47;20.90;99.90
22742;DHT22;11538;48.884;8.696;2023-07-13T07:02:14;21.00;99.90
22742;DHT22;11538;48.884;8.696;2023-07-13T07:04:41;21.10;99.90
22742;DHT22;11538;48.884;8.696;2023-07-13T07:07:08;21.20;99.90
22742;DHT22;11538;48.884;8.696;2023-07-13T07:09:35;21.30;99.90
22742;DHT22;11538;48.884;8.696;2023-07-13T07:12:03;21.40;99.90
22742;DHT22;11538;48.884;8.696;2023-07-13T07:14:31;21.50;99.90
22742;DHT22;11538;48.884;8.696;2023-07-13T07:16:58;21.60;99.90
22742;DHT22;11538;48.884;8.696;2023-07-13T07:19:27;21.70;99.90
22742;DHT22;11538;48.884;8.696;2023-07-13T07:21:55;21.80;99.90
22742;DHT22;11538;48.884;8.696;2023-07-13T07:24:22;21.90;99.90
22742;DHT22;11538;48.884;8.696;2023-07-13T07:26:49;22.10;99.90
22742;DHT22;11538;48.884;8.696;2023-07-13T07:29:19;22.20;99.90
22742;DHT22;11538;48.884;8.696;2023-07-13T07:31:49;22.30;99.90
22742;DHT22;11538;48.884;8.696;2023-07-13T07:34:32;22.40;99.90
22742;DHT22;11538;48.884;8.696;2023-07-13T07:37:00;22.60;99.90
22742;DHT22;11538;48.884;8.696;2023-07-13T07:39:31;22.80;99.90
22742;DHT22;11538;48.884;8.696;2023-07-13T07:41:58;22.90;99.90
22742;DHT22;11538;48.884;8.696;2023-07-13T07:44:25;23.00;99.90
22742;DHT22;11538;48.884;8.696;2023-07-13T07:46:53;23.10;99.90
22742;DHT22;11538;48.884;8.696;2023-07-13T07:49:21;23.20;99.90
22742;DHT22;11538;48.884;8.696;2023-07-13T07:51:48;23.30;99.90
22742;DHT22;11538;48.884;8.696;2023-07-13T07:54:15;23.40;99.90
22742;DHT22;11538;48.884;8.696;2023-07-13T07:56:53;23.50;99.90
22742;DHT22;11538;48.884;8.696;2023-07-13T07:59:23;23.70;99.90
22742;DHT22;11538;48.884;8.696;2023-07-13T08:01:55;23.90;99.90
22742;DHT22;11538;48.884;8.696;2023-07-13T08:04:25;24.00;99.90
22742;DHT22;11538;48.884;8.696;2023-07-13T08:06:55;24.10;99.90
22742;DHT22;11538;48.884;8.696;2023-07-13T08:09:24;24.20;99.90
22742;DHT22;11538;48.884;8.696;2023-07-13T08:11:52;24.40;99.90
22742;DHT22;11538;48.884;8.696;2023-07-13T08:14:22;24.50;99.90
22742;DHT22;11538;48.884;8.696;2023-07-13T08:16:49;24.60;99.90
22742;DHT22;11538;48.884;8.696;2023-07-13T08:19:16;24.80;99.90
22742;DHT22;11538;48.884;8.696;2023-07-13T08:21:43;25.00;99.90
22742;DHT22;11538;48.884;8.696;2023-07-13T08:24:10;25.10;99.90
22742;DHT22;11538;48.884;8.696;2023-07-13T08:26:37;25.30;99.90
22742;DHT22;11538;48.884;8.696;2023-07-13T08:29:04;25.50;99.90
22742;DHT22;11538;48.884;8.696;2023-07-13T08:31:31;25.70;99.90
22742;DHT22;11538;48.884;8.696;2023-07-13T08:33:58;25.80;99.90
22742;DHT22;11538;48.884;8.696;2023-07-13T08:36:25;25.90;99.90
22742;DHT22;11538;48.884;8.696;2023-07-13T08:38:53;26.00;99.90
22742;DHT22;11538;48.884;8.696;2023-07-13T08:41:21;26.00;99.90
22742;DHT22;11538;48.884;8.696;2023-07-13T08:43:51;26.00;99.90
22742;DHT22;11538;48.884;8.696;2023-07-13T08:46:36;26.10;99.90
22742;DHT22;11538;48.884;8.696;2023-07-13T08:49:17;26.30;99.90
22742;DHT22;11538;48.884;8.696;2023-07-13T08:52:00;26.40;99.90
22742;DHT22;11538;48.884;8.696;2023-07-13T08:54:36;26.50;99.90
22742;DHT22;11538;48.884;8.696;2023-07-13T08:57:15;26.70;99.90
22742;DHT22;11538;48.884;8.696;2023-07-13T08:59:44;26.80;99.90
22742;DHT22;11538;48.884;8.696;2023-07-13T09:05:37;27.00;99.90
22742;DHT22;11538;48.884;8.696;2023-07-13T09:11:52;27.20;99.90
22742;DHT22;11538;48.884;8.696;2023-07-13T09:14:48;27.30;99.90
22742;DHT22;11538;48.884;8.696;2023-07-13T09:17:33;27.40;99.90
22742;DHT22;11538;48.884;8.696;2023-07-13T09:20:10;27.40;99.90
22742;DHT22;11538;48.884;8.696;2023-07-13T09:22:49;27.40;99.90
22742;DHT22;11538;48.884;8.696;2023-07-13T09:25:24;27.60;99.90
22742;DHT22;11538;48.884;8.696;2023-07-13T09:28:03;27.80;99.90
22742;DHT22;11538;48.884;8.696;2023-07-13T09:33:45;28.00;99.90
22742;DHT22;11538;48.884;8.696;2023-07-13T09:36:30;28.00;99.90
22742;DHT22;11538;48.884;8.696;2023-07-13T09:39:28;28.10;99.90
22742;DHT22;11538;48.884;8.696;2023-07-13T09:42:17;28.20;99.90
22742;DHT22;11538;48.884;8.696;2023-07-13T09:44:58;28.30;99.90
22742;DHT22;11538;48.884;8.696;2023-07-13T09:47:29;28.40;99.90
22742;DHT22;11538;48.884;8.696;2023-07-13T09:50:04;28.50;99.90
22742;DHT22;11538;48.884;8.696;2023-07-13T09:52:46;28.50;99.90
22742;DHT22;11538;48.884;8.696;2023-07-13T09:58:16;28.70;99.90
22742;DHT22;11538;48.884;8.696;2023-07-13T10:00:56;28.80;99.90
22742;DHT22;11538;48.884;8.696;2023-07-13T10:03:27;28.90;99.90
22742;DHT22;11538;48.884;8.696;2023-07-13T10:06:09;28.90;99.90
22742;DHT22;11538;48.884;8.696;2023-07-13T10:08:43;28.90;99.90
22742;DHT22;11538;48.884;8.696;2023-07-13T10:11:24;29.10;99.90
22742;DHT22;11538;48.884;8.696;2023-07-13T10:13:59;29.20;99.90
22742;DHT22;11538;48.884;8.696;2023-07-13T10:16:32;29.30;99.90
22742;DHT22;11538;48.884;8.696;2023-07-13T10:19:26;29.30;99.90
22742;DHT22;11538;48.884;8.696;2023-07-13T10:22:14;29.30;99.90
22742;DHT22;11538;48.884;8.696;2023-07-13T10:24:54;29.60;99.90
22742;DHT22;11538;48.884;8.696;2023-07-13T10:27:35;29.80;99.90
22742;DHT22;11538;48.884;8.696;2023-07-13T10:30:14;29.90;99.90
22742;DHT22;11538;48.884;8.696;2023-07-13T10:32:47;30.10;99.90
22742;DHT22;11538;48.884;8.696;2023-07-13T10:35:17;30.10;99.90
22742;DHT22;11538;48.884;8.696;2023-07-13T10:37:54;30.30;99.90
22742;DHT22;11538;48.884;8.696;2023-07-13T10:40:48;30.40;99.90
22742;DHT22;11538;48.884;8.696;2023-07-13T10:43:37;30.50;99.90
22742;DHT22;11538;48.884;8.696;2023-07-13T10:46:13;30.60;99.90
22742;DHT22;11538;48.884;8.696;2023-07-13T10:48:44;30.60;99.90
22742;DHT22;11538;48.884;8.696;2023-07-13T10:51:18;30.40;99.90
22742;DHT22;11538;48.884;8.696;2023-07-13T10:54:11;30.20;99.90
22742;DHT22;11538;48.884;8.696;2023-07-13T10:56:46;30.20;99.90
22742;DHT22;11538;48.884;8.696;2023-07-13T10:59:26;30.20;99.90
22742;DHT22;11538;48.884;8.696;2023-07-13T11:02:10;30.30;99.90
22742;DHT22;11538;48.884;8.696;2023-07-13T11:04:47;30.50;99.90
22742;DHT22;11538;48.884;8.696;2023-07-13T11:07:29;30.70;99.90
22742;DHT22;11538;48.884;8.696;2023-07-13T11:10:03;30.90;99.90
22742;DHT22;11538;48.884;8.696;2023-07-13T11:15:26;31.20;99.90
22742;DHT22;11538;48.884;8.696;2023-07-13T11:17:56;31.30;99.90
22742;DHT22;11538;48.884;8.696;2023-07-13T11:20:36;31.50;99.90
22742;DHT22;11538;48.884;8.696;2023-07-13T11:23:19;31.60;99.90
22742;DHT22;11538;48.884;8.696;2023-07-13T11:25:55;31.70;99.90
22742;DHT22;11538;48.884;8.696;2023-07-13T11:28:29;31.70;99.90
22742;DHT22;11538;48.884;8.696;2023-07-13T11:33:31;32.10;99.90
22742;DHT22;11538;48.884;8.696;2023-07-13T11:36:19;32.30;99.90
22742;DHT22;11538;48.884;8.696;2023-07-13T11:38:59;32.40;99.90
22742;DHT22;11538;48.884;8.696;2023-07-13T11:41:55;32.50;99.90
22742;DHT22;11538;48.884;8.696;2023-07-13T11:44:30;32.80;99.90
22742;DHT22;11538;48.884;8.696;2023-07-13T11:47:08;33.00;99.90
22742;DHT22;11538;48.884;8.696;2023-07-13T11:49:43;33.20;99.90
22742;DHT22;11538;48.884;8.696;2023-07-13T11:52:17;33.50;99.90
22742;DHT22;11538;48.884;8.696;2023-07-13T11:54:53;33.70;99.90
22742;DHT22;11538;48.884;8.696;2023-07-13T11:57:36;33.90;99.90
22742;DHT22;11538;48.884;8.696;2023-07-13T12:00:14;33.90;99.90
22742;DHT22;11538;48.884;8.696;2023-07-13T12:02:47;34.10;99.90
22742;DHT22;11538;48.884;8.696;2023-07-13T12:05:18;34.20;99.90
22742;DHT22;11538;48.884;8.696;2023-07-13T12:07:51;34.30;99.90
22742;DHT22;11538;48.884;8.696;2023-07-13T12:10:27;34.20;99.90
22742;DHT22;11538;48.884;8.696;2023-07-13T12:13:04;34.10;99.90
22742;DHT22;11538;48.884;8.696;2023-07-13T12:15:39;34.20;99.90
22742;DHT22;11538;48.884;8.696;2023-07-13T12:18:22;34.10;99.90
22742;DHT22;11538;48.884;8.696;2023-07-13T12:20:57;33.60;99.90
22742;DHT22;11538;48.884;8.696;2023-07-13T12:23:32;33.50;99.90
22742;DHT22;11538;48.884;8.696;2023-07-13T12:26:04;33.60;99.90
22742;DHT22;11538;48.884;8.696;2023-07-13T12:28:36;33.90;99.90
22742;DHT22;11538;48.884;8.696;2023-07-13T12:31:07;34.10;99.90
22742;DHT22;11538;48.884;8.696;2023-07-13T12:34:14;34.20;99.90
22742;DHT22;11538;48.884;8.696;2023-07-13T12:36:56;34.40;99.90
22742;DHT22;11538;48.884;8.696;2023-07-13T12:39:34;34.70;99.90
22742;DHT22;11538;48.884;8.696;2023-07-13T12:42:24;34.80;99.90
22742;DHT22;11538;48.884;8.696;2023-07-13T12:45:17;34.90;99.90
22742;DHT22;11538;48.884;8.696;2023-07-13T12:47:48;35.00;99.90
22742;DHT22;11538;48.884;8.696;2023-07-13T12:50:22;34.70;99.90
22742;DHT22;11538;48.884;8.696;2023-07-13T12:53:01;34.40;99.90
22742;DHT22;11538;48.884;8.696;2023-07-13T12:55:43;34.10;99.90
22742;DHT22;11538;48.884;8.696;2023-07-13T13:01:02;33.90;99.90
22742;DHT22;11538;48.884;8.696;2023-07-13T13:03:40;33.90;99.90
22742;DHT22;11538;48.884;8.696;2023-07-13T13:08:42;34.20;99.90
22742;DHT22;11538;48.884;8.696;2023-07-13T13:11:10;34.50;99.90
22742;DHT22;11538;48.884;8.696;2023-07-13T13:13:43;34.70;99.90
22742;DHT22;11538;48.884;8.696;2023-07-13T13:18:55;35.00;99.90
22742;DHT22;11538;48.884;8.696;2023-07-13T13:21:24;35.30;99.90
22742;DHT22;11538;48.884;8.696;2023-07-13T13:23:52;35.50;99.90
22742;DHT22;11538;48.884;8.696;2023-07-13T13:26:22;35.70;99.90
22742;DHT22;11538;48.884;8.696;2023-07-13T13:28:49;35.80;99.90
22742;DHT22;11538;48.884;8.696;2023-07-13T13:31:17;35.90;99.90
22742;DHT22;11538;48.884;8.696;2023-07-13T13:33:45;36.00;99.90
22742;DHT22;11538;48.884;8.696;2023-07-13T13:36:20;36.20;99.90
22742;DHT22;11538;48.884;8.696;2023-07-13T13:38:50;36.20;99.90
22742;DHT22;11538;48.884;8.696;2023-07-13T13:41:17;35.90;99.90
22742;DHT22;11538;48.884;8.696;2023-07-13T13:43:44;35.80;99.90
22742;DHT22;11538;48.884;8.696;2023-07-13T13:46:18;35.90;99.90
22742;DHT22;11538;48.884;8.696;2023-07-13T13:48:48;35.70;99.90
22742;DHT22;11538;48.884;8.696;2023-07-13T13:51:20;35.60;99.90
22742;DHT22;11538;48.884;8.696;2023-07-13T13:53:50;35.50;99.90
22742;DHT22;11538;48.884;8.696;2023-07-13T13:56:19;35.60;99.90
22742;DHT22;11538;48.884;8.696;2023-07-13T13:58:46;35.50;99.90
22742;DHT22;11538;48.884;8.696;2023-07-13T14:01:21;35.30;99.90
22742;DHT22;11538;48.884;8.696;2023-07-13T14:03:51;35.00;99.90
22742;DHT22;11538;48.884;8.696;2023-07-13T14:06:18;34.90;99.90
22742;DHT22;11538;48.884;8.696;2023-07-13T14:08:46;34.90;99.90
22742;DHT22;11538;48.884;8.696;2023-07-13T14:11:17;35.10;99.90
22742;DHT22;11538;48.884;8.696;2023-07-13T14:13:57;35.10;99.90
22742;DHT22;11538;48.884;8.696;2023-07-13T14:16:29;35.20;99.90
22742;DHT22;11538;48.884;8.696;2023-07-13T14:18:59;35.20;99.90
22742;DHT22;11538;48.884;8.696;2023-07-13T14:21:28;35.30;99.90
22742;DHT22;11538;48.884;8.696;2023-07-13T14:23:56;35.40;99.90
22742;DHT22;11538;48.884;8.696;2023-07-13T14:26:25;35.00;99.90
22742;DHT22;11538;48.884;8.696;2023-07-13T14:28:56;34.60;99.90
22742;DHT22;11538;48.884;8.696;2023-07-13T14:31:26;34.50;99.90
22742;DHT22;11538;48.884;8.696;2023-07-13T14:33:57;34.50;99.90
22742;DHT22;11538;48.884;8.696;2023-07-13T14:36:31;34.50;99.90
22742;DHT22;11538;48.884;8.696;2023-07-13T14:39:05;34.50;99.90
22742;DHT22;11538;48.884;8.696;2023-07-13T14:41:39;34.50;99.90
22742;DHT22;11538;48.884;8.696;2023-07-13T14:44:17;34.50;99.90
22742;DHT22;11538;48.884;8.696;2023-07-13T14:46:47;34.40;99.90
22742;DHT22;11538;48.884;8.696;2023-07-13T14:49:29;34.20;99.90
22742;DHT22;11538;48.884;8.696;2023-07-13T14:52:13;33.80;99.90
22742;DHT22;11538;48.884;8.696;2023-07-13T14:54:43;33.40;99.90
22742;DHT22;11538;48.884;8.696;2023-07-13T14:57:17;33.40;99.90
22742;DHT22;11538;48.884;8.696;2023-07-13T14:59:47;33.40;99.90
22742;DHT22;11538;48.884;8.696;2023-07-13T15:04:57;33.50;99.90
22742;DHT22;11538;48.884;8.696;2023-07-13T15:07:25;33.60;99.90
22742;DHT22;11538;48.884;8.696;2023-07-13T15:09:52;33.40;99.90
22742;DHT22;11538;48.884;8.696;2023-07-13T15:12:20;33.10;99.90
22742;DHT22;11538;48.884;8.696;2023-07-13T15:14:47;32.80;99.90
22742;DHT22;11538;48.884;8.696;2023-07-13T15:17:26;32.40;99.90
22742;DHT22;11538;48.884;8.696;2023-07-13T15:20:21;32.00;99.90
22742;DHT22;11538;48.884;8.696;2023-07-13T15:22:50;31.80;99.90
22742;DHT22;11538;48.884;8.696;2023-07-13T15:25:23;31.80;99.90
22742;DHT22;11538;48.884;8.696;2023-07-13T15:27:53;31.90;99.90
22742;DHT22;11538;48.884;8.696;2023-07-13T15:30:26;32.10;99.90
22742;DHT22;11538;48.884;8.696;2023-07-13T15:32:58;32.10;99.90
22742;DHT22;11538;48.884;8.696;2023-07-13T15:35:33;32.00;99.90
22742;DHT22;11538;48.884;8.696;2023-07-13T15:38:00;31.70;99.90
22742;DHT22;11538;48.884;8.696;2023-07-13T15:40:29;31.40;99.90
22742;DHT22;11538;48.884;8.696;2023-07-13T15:42:56;31.10;99.90
22742;DHT22;11538;48.884;8.696;2023-07-13T15:45:24;30.90;99.90
22742;DHT22;11538;48.884;8.696;2023-07-13T15:47:54;30.80;99.90
22742;DHT22;11538;48.884;8.696;2023-07-13T15:50:24;30.90;99.90
22742;DHT22;11538;48.884;8.696;2023-07-13T15:52:54;30.90;99.90
22742;DHT22;11538;48.884;8.696;2023-07-13T15:55:25;31.10;99.90
22742;DHT22;11538;48.884;8.696;2023-07-13T15:57:52;31.20;99.90
22742;DHT22;11538;48.884;8.696;2023-07-13T16:00:21;31.20;99.90
22742;DHT22;11538;48.884;8.696;2023-07-13T16:02:50;31.10;99.90
22742;DHT22;11538;48.884;8.696;2023-07-13T16:05:23;30.90;99.90
22742;DHT22;11538;48.884;8.696;2023-07-13T16:07:51;30.80;99.90
22742;DHT22;11538;48.884;8.696;2023-07-13T16:10:29;30.60;99.90
22742;DHT22;11538;48.884;8.696;2023-07-13T16:13:01;30.30;99.90
22742;DHT22;11538;48.884;8.696;2023-07-13T16:15:29;30.00;99.90
22742;DHT22;11538;48.884;8.696;2023-07-13T16:17:57;29.80;99.90
22742;DHT22;11538;48.884;8.696;2023-07-13T16:20:24;29.50;99.90
22742;DHT22;11538;48.884;8.696;2023-07-13T16:22:53;29.40;99.90
22742;DHT22;11538;48.884;8.696;2023-07-13T16:25:24;29.20;99.90